createdAt,value
2022-12-31T00:02:24.349Z,13.40
2022-12-31T00:04:51.558Z,9.77
2022-12-31T00:07:20.422Z,8.40
2022-12-31T00:09:48.154Z,10.52
2022-12-31T00:12:15.427Z,8.13
2022-12-31T00:14:42.610Z,6.93
2022-12-31T00:17:09.860Z,7.18
2022-12-31T00:19:37.072Z,8.48
2022-12-31T00:22:04.279Z,10.35
2022-12-31T00:24:33.544Z,6.75
2022-12-31T00:27:03.309Z,7.32
2022-12-31T00:29:30.448Z,8.40
2022-12-31T00:31:57.547Z,6.43
2022-12-31T00:34:24.717Z,6.35
2022-12-31T00:36:52.874Z,8.98
2022-12-31T00:39:20.013Z,6.43
2022-12-31T00:41:47.066Z,7.50
2022-12-31T00:44:14.190Z,7.57
2022-12-31T00:49:07.485Z,7.80
2022-12-31T00:51:34.791Z,6.03
2022-12-31T00:54:02.149Z,7.22
2022-12-31T00:56:30.885Z,7.78
2022-12-31T00:58:58.839Z,8.65
2022-12-31T01:01:33.636Z,10.48
2022-12-31T01:04:05.277Z,8.35
2022-12-31T01:06:32.520Z,7.40
2022-12-31T01:08:59.769Z,8.45
2022-12-31T01:11:29.604Z,5.50
2022-12-31T01:14:01.681Z,8.55
2022-12-31T01:16:40.239Z,7.03
2022-12-31T01:19:09.306Z,8.40
2022-12-31T01:21:37.099Z,7.93
2022-12-31T01:24:04.695Z,6.63
2022-12-31T01:26:32.202Z,6.97
2022-12-31T01:28:59.357Z,5.90
2022-12-31T01:31:26.631Z,7.28
2022-12-31T01:33:54.350Z,7.22
2022-12-31T01:36:25.967Z,8.45
2022-12-31T01:38:55.066Z,5.57
2022-12-31T01:41:28.336Z,4.43
2022-12-31T01:43:59.817Z,10.15
2022-12-31T01:46:45.521Z,8.57
2022-12-31T01:49:12.751Z,11.32
2022-12-31T01:51:40.557Z,5.40
2022-12-31T01:54:09.498Z,7.38
2022-12-31T01:56:38.544Z,7.65
2022-12-31T01:59:07.011Z,11.43
2022-12-31T02:01:36.914Z,10.30
2022-12-31T02:04:07.181Z,7.82
2022-12-31T02:06:46.284Z,8.43
2022-12-31T02:09:14.177Z,11.65
2022-12-31T02:11:41.432Z,11.80
2022-12-31T02:14:08.492Z,13.77
2022-12-31T02:16:41.023Z,8.85
2022-12-31T02:19:22.313Z,8.38
2022-12-31T02:21:49.427Z,12.23
2022-12-31T02:24:35.447Z,16.80
2022-12-31T02:27:17.850Z,11.88
2022-12-31T02:30:03.454Z,15.23
2022-12-31T02:32:36.148Z,17.00
2022-12-31T02:35:23.639Z,15.23
2022-12-31T02:37:54.597Z,20.75
2022-12-31T02:40:22.710Z,13.13
2022-12-31T02:42:55.035Z,22.73
2022-12-31T02:45:27.512Z,22.27
2022-12-31T02:48:06.604Z,20.52
2022-12-31T02:50:42.238Z,20.02
2022-12-31T02:53:29.500Z,17.95
2022-12-31T02:56:16.843Z,24.88
2022-12-31T02:59:23.488Z,18.48
2022-12-31T03:02:14.614Z,21.60
2022-12-31T03:04:51.089Z,16.85
2022-12-31T03:07:19.660Z,19.35
2022-12-31T03:09:47.240Z,15.93
2022-12-31T03:12:34.326Z,24.45
2022-12-31T03:15:01.540Z,23.63
2022-12-31T03:17:28.592Z,24.63
2022-12-31T03:20:14.106Z,19.55
2022-12-31T03:22:42.624Z,29.20
2022-12-31T03:25:32.876Z,19.20
2022-12-31T03:28:00.982Z,16.48
2022-12-31T03:30:28.534Z,14.50
2022-12-31T03:32:56.597Z,18.90
2022-12-31T03:35:24.622Z,14.52
2022-12-31T03:37:51.975Z,14.35
2022-12-31T03:40:20.769Z,12.27
2022-12-31T03:42:47.838Z,15.70
2022-12-31T03:45:14.984Z,14.15
2022-12-31T03:47:42.215Z,14.95
2022-12-31T03:50:09.912Z,19.15
2022-12-31T03:52:38.734Z,18.98
2022-12-31T03:55:06.375Z,20.35
2022-12-31T03:57:33.593Z,18.35
2022-12-31T04:00:00.772Z,22.70
2022-12-31T04:02:29.218Z,25.70
2022-12-31T04:04:56.810Z,19.52
2022-12-31T04:07:23.991Z,25.55
2022-12-31T04:09:51.178Z,20.50
2022-12-31T04:12:18.375Z,17.95
2022-12-31T04:14:45.525Z,15.95
2022-12-31T04:17:12.845Z,16.98
2022-12-31T04:19:39.971Z,22.90
2022-12-31T04:22:07.090Z,16.95
2022-12-31T04:24:34.322Z,17.73
2022-12-31T04:27:07.238Z,21.85
2022-12-31T04:29:35.043Z,18.17
2022-12-31T04:32:02.281Z,17.67
2022-12-31T04:34:29.482Z,24.00
2022-12-31T04:36:56.610Z,21.08
2022-12-31T04:39:24.500Z,20.40
2022-12-31T04:41:51.565Z,18.63
2022-12-31T04:44:18.896Z,24.38
2022-12-31T04:46:46.314Z,16.58
2022-12-31T04:49:13.499Z,20.35
2022-12-31T04:51:41.014Z,17.17
2022-12-31T04:54:08.207Z,18.42
2022-12-31T04:56:36.936Z,29.10
2022-12-31T04:59:04.911Z,26.33
2022-12-31T05:01:33.402Z,23.67
2022-12-31T05:04:00.723Z,24.75
2022-12-31T05:06:27.951Z,30.13
2022-12-31T05:08:55.020Z,34.40
2022-12-31T05:11:22.167Z,30.80
2022-12-31T05:13:49.175Z,24.83
2022-12-31T05:16:16.905Z,31.27
2022-12-31T05:18:44.212Z,35.15
2022-12-31T05:21:15.861Z,24.15
2022-12-31T05:23:42.933Z,19.92
2022-12-31T05:26:10.078Z,23.98
2022-12-31T05:28:37.222Z,18.35
2022-12-31T05:31:06.942Z,24.88
2022-12-31T05:33:34.251Z,25.05
2022-12-31T05:36:01.425Z,25.88
2022-12-31T05:38:28.692Z,20.83
2022-12-31T05:41:06.541Z,22.40
2022-12-31T05:43:33.931Z,22.08
2022-12-31T05:46:04.888Z,17.25
2022-12-31T05:48:33.253Z,18.60
2022-12-31T05:51:00.450Z,19.77
2022-12-31T05:53:27.652Z,15.10
2022-12-31T05:55:54.771Z,21.73
2022-12-31T05:58:21.929Z,24.48
2022-12-31T06:00:49.022Z,15.75
2022-12-31T06:03:17.572Z,27.25
2022-12-31T06:05:44.764Z,32.47
2022-12-31T06:08:12.488Z,30.15
2022-12-31T06:10:40.194Z,20.58
2022-12-31T06:13:07.418Z,21.30
2022-12-31T06:15:40.033Z,25.30
2022-12-31T06:18:07.768Z,27.38
2022-12-31T06:20:38.172Z,21.13
2022-12-31T06:23:05.847Z,23.17
2022-12-31T06:25:34.618Z,32.47
2022-12-31T06:28:01.755Z,26.80
2022-12-31T06:30:28.853Z,26.48
2022-12-31T06:32:55.975Z,22.67
2022-12-31T06:35:23.308Z,17.33
2022-12-31T06:37:51.928Z,31.20
2022-12-31T06:40:19.007Z,26.40
2022-12-31T06:42:46.346Z,26.85
2022-12-31T06:45:13.585Z,39.95
2022-12-31T06:47:40.916Z,41.35
2022-12-31T06:50:08.472Z,25.55
2022-12-31T06:52:35.680Z,32.63
2022-12-31T06:55:03.362Z,34.85
2022-12-31T06:57:30.801Z,24.63
2022-12-31T06:59:59.184Z,22.80
2022-12-31T07:02:32.536Z,23.13
2022-12-31T07:05:05.557Z,22.77
2022-12-31T07:07:45.594Z,19.67
2022-12-31T07:10:12.804Z,17.98
2022-12-31T07:12:45.961Z,13.98
2022-12-31T07:15:35.761Z,22.58
2022-12-31T07:18:14.736Z,18.50
2022-12-31T07:20:41.995Z,19.35
2022-12-31T07:23:10.979Z,39.38
2022-12-31T07:25:41.617Z,25.17
2022-12-31T07:28:21.043Z,25.40
2022-12-31T07:30:53.626Z,29.10
2022-12-31T07:33:58.967Z,27.83
2022-12-31T07:36:44.109Z,17.58
2022-12-31T07:39:16.746Z,20.23
2022-12-31T07:41:52.252Z,27.90
2022-12-31T07:44:39.670Z,34.23
2022-12-31T07:47:13.267Z,51.75
2022-12-31T07:49:41.610Z,63.13
2022-12-31T07:52:09.200Z,50.60
2022-12-31T07:54:36.302Z,44.88
2022-12-31T07:57:03.658Z,41.35
2022-12-31T07:59:36.712Z,34.53
2022-12-31T08:02:12.381Z,28.30
2022-12-31T08:04:43.150Z,28.52
2022-12-31T08:07:22.650Z,29.10
2022-12-31T08:09:53.590Z,36.22
2022-12-31T08:12:21.741Z,35.92
2022-12-31T08:14:49.160Z,32.47
2022-12-31T08:17:18.157Z,25.30
2022-12-31T08:19:48.452Z,27.80
2022-12-31T08:22:23.131Z,26.70
2022-12-31T08:25:01.846Z,26.02
2022-12-31T08:27:38.127Z,24.50
2022-12-31T08:30:08.419Z,29.95
2022-12-31T08:32:54.418Z,31.42
2022-12-31T08:35:41.181Z,32.90
2022-12-31T08:38:44.252Z,29.98
2022-12-31T08:41:20.941Z,31.23
2022-12-31T08:43:58.595Z,29.85
2022-12-31T08:46:34.730Z,30.65
2022-12-31T08:49:02.074Z,30.15
2022-12-31T08:51:29.321Z,31.48
2022-12-31T08:53:56.678Z,31.27
2022-12-31T08:56:30.477Z,31.33
2022-12-31T08:59:25.576Z,29.23
2022-12-31T09:02:08.223Z,27.67
2022-12-31T09:04:55.789Z,27.38
2022-12-31T09:07:28.360Z,29.58
2022-12-31T09:10:02.347Z,26.80
2022-12-31T09:12:36.094Z,22.63
2022-12-31T09:15:18.685Z,26.77
2022-12-31T09:17:47.164Z,25.83
2022-12-31T09:20:16.571Z,28.42
2022-12-31T09:22:43.977Z,23.27
2022-12-31T09:25:15.598Z,23.35
2022-12-31T09:27:58.342Z,24.83
2022-12-31T09:30:26.772Z,26.95
2022-12-31T09:33:05.029Z,28.20
2022-12-31T09:35:38.256Z,23.10
2022-12-31T09:38:11.912Z,27.73
2022-12-31T09:40:48.386Z,27.25
2022-12-31T09:43:34.119Z,24.65
2022-12-31T09:46:19.428Z,24.85
2022-12-31T09:49:04.952Z,24.85
2022-12-31T09:51:33.004Z,26.05
2022-12-31T09:54:00.147Z,21.52
2022-12-31T09:56:30.451Z,23.67
2022-12-31T09:59:03.329Z,22.50
2022-12-31T10:01:39.655Z,16.73
2022-12-31T10:04:27.976Z,14.90
2022-12-31T10:07:03.927Z,20.85
2022-12-31T10:09:51.169Z,15.55
2022-12-31T10:14:52.055Z,21.00
2022-12-31T10:17:19.111Z,23.58
2022-12-31T10:19:58.562Z,20.02
2022-12-31T10:22:50.786Z,14.52
2022-12-31T10:25:37.946Z,19.30
2022-12-31T10:28:22.635Z,27.17
2022-12-31T10:30:59.655Z,36.33
2022-12-31T10:33:39.490Z,32.80
2022-12-31T10:36:18.207Z,37.63
2022-12-31T10:38:48.143Z,49.25
2022-12-31T10:41:21.621Z,42.67
2022-12-31T10:43:51.562Z,42.03
2022-12-31T10:46:35.623Z,37.67
2022-12-31T10:49:28.280Z,38.20
2022-12-31T10:51:55.471Z,40.42
2022-12-31T10:54:23.146Z,40.25
2022-12-31T10:57:07.633Z,48.28
2022-12-31T10:59:37.483Z,55.25
2022-12-31T11:02:11.008Z,47.95
2022-12-31T11:04:58.573Z,57.08
2022-12-31T11:07:31.504Z,55.17
2022-12-31T11:10:01.419Z,48.53
2022-12-31T11:12:44.011Z,51.28
2022-12-31T11:15:23.061Z,56.38
2022-12-31T11:18:08.671Z,58.88
2022-12-31T11:20:38.992Z,62.22
2022-12-31T11:23:08.821Z,71.38
2022-12-31T11:25:45.145Z,65.28
2022-12-31T11:28:15.465Z,58.63
2022-12-31T11:30:45.953Z,48.90
2022-12-31T11:33:21.211Z,54.10
2022-12-31T11:35:48.317Z,53.63
2022-12-31T11:38:21.594Z,44.58
2022-12-31T11:41:10.049Z,42.40
2022-12-31T11:43:44.455Z,32.45
2022-12-31T11:46:19.306Z,31.10
2022-12-31T11:49:18.748Z,20.63
2022-12-31T11:52:05.619Z,27.33
2022-12-31T11:54:45.084Z,34.58
2022-12-31T11:57:12.123Z,28.73
2022-12-31T11:59:39.210Z,22.60
2022-12-31T12:02:25.481Z,34.53
2022-12-31T12:05:02.729Z,27.00
2022-12-31T12:07:35.606Z,21.98
2022-12-31T12:10:04.733Z,18.83
2022-12-31T12:12:44.133Z,22.33
2022-12-31T12:15:18.526Z,30.45
2022-12-31T12:17:49.935Z,27.27
2022-12-31T12:20:20.215Z,23.05
2022-12-31T12:22:56.506Z,30.63
2022-12-31T12:25:25.875Z,29.33
2022-12-31T12:27:53.094Z,25.75
2022-12-31T12:30:21.618Z,22.50
2022-12-31T12:32:52.641Z,18.50
2022-12-31T12:35:24.915Z,11.75
2022-12-31T12:37:58.805Z,22.17
2022-12-31T12:40:33.404Z,9.90
2022-12-31T12:43:01.656Z,14.05
2022-12-31T12:45:36.841Z,11.07
2022-12-31T12:48:09.275Z,11.32
2022-12-31T12:50:42.077Z,13.05
2022-12-31T12:53:16.182Z,15.00
2022-12-31T12:55:49.344Z,14.63
2022-12-31T12:58:19.693Z,9.15
2022-12-31T13:01:07.088Z,13.40
2022-12-31T13:04:23.724Z,13.18
2022-12-31T13:06:42.745Z,10.70
2022-12-31T13:09:28.520Z,18.25
2022-12-31T13:11:55.564Z,15.43
2022-12-31T13:14:22.652Z,21.50
2022-12-31T13:16:57.597Z,18.42
2022-12-31T13:19:43.426Z,15.65
2022-12-31T13:22:14.865Z,17.45
2022-12-31T13:25:02.746Z,21.63
2022-12-31T13:27:38.175Z,16.48
2022-12-31T13:32:43.505Z,18.63
2022-12-31T13:35:28.532Z,17.88
2022-12-31T13:38:05.551Z,17.83
2022-12-31T13:40:48.611Z,19.15
2022-12-31T13:43:18.433Z,14.50
2022-12-31T13:45:46.577Z,14.35
2022-12-31T13:48:16.363Z,17.83
2022-12-31T13:50:53.199Z,11.68
2022-12-31T13:53:29.778Z,15.57
2022-12-31T13:55:59.451Z,12.57
2022-12-31T13:58:29.111Z,11.52
2022-12-31T14:00:59.028Z,14.93
2022-12-31T14:03:42.690Z,13.75
2022-12-31T14:06:25.782Z,13.05
2022-12-31T14:08:53.699Z,14.98
2022-12-31T14:11:30.078Z,19.30
2022-12-31T14:14:17.037Z,13.27
2022-12-31T14:17:17.871Z,19.70
2022-12-31T14:19:55.589Z,16.77
2022-12-31T14:22:43.899Z,12.38
2022-12-31T14:25:17.083Z,14.32
2022-12-31T14:27:45.480Z,15.35
2022-12-31T14:30:16.039Z,18.27
2022-12-31T14:32:53.996Z,15.20
2022-12-31T14:35:40.059Z,19.42
2022-12-31T14:40:40.194Z,18.70
2022-12-31T14:43:31.033Z,18.55
2022-12-31T14:45:58.199Z,21.27
2022-12-31T14:48:38.404Z,25.23
2022-12-31T14:51:05.824Z,24.25
2022-12-31T14:53:33.145Z,24.95
2022-12-31T14:56:05.663Z,24.08
2022-12-31T14:58:37.394Z,25.52
2022-12-31T15:01:26.295Z,31.25
2022-12-31T15:03:57.694Z,32.13
2022-12-31T15:06:24.881Z,20.35
2022-12-31T15:09:13.308Z,27.52
2022-12-31T15:11:51.093Z,32.22
2022-12-31T15:14:37.869Z,27.05
2022-12-31T15:17:11.316Z,30.02
2022-12-31T15:19:44.379Z,31.60
2022-12-31T15:22:30.382Z,28.65
2022-12-31T15:27:36.021Z,32.40
2022-12-31T15:30:06.806Z,29.95
2022-12-31T15:32:40.932Z,30.55
2022-12-31T15:35:23.328Z,31.17
2022-12-31T15:38:04.913Z,32.20
2022-12-31T15:40:42.557Z,37.10
2022-12-31T15:43:27.480Z,42.58
2022-12-31T15:45:55.452Z,38.05
2022-12-31T15:48:37.905Z,34.35
2022-12-31T15:51:05.267Z,35.67
2022-12-31T15:53:38.762Z,45.53
2022-12-31T15:56:07.443Z,43.10
2022-12-31T15:58:38.406Z,43.05
2022-12-31T16:01:10.089Z,38.63
2022-12-31T16:03:37.699Z,42.72
2022-12-31T16:06:16.063Z,41.10
2022-12-31T16:08:48.289Z,41.28
2022-12-31T16:11:16.180Z,45.55
2022-12-31T16:13:45.752Z,42.80
2022-12-31T16:16:22.650Z,41.30
2022-12-31T16:18:50.566Z,48.58
2022-12-31T16:21:23.555Z,45.45
2022-12-31T16:23:54.074Z,53.03
2022-12-31T16:26:23.462Z,57.20
2022-12-31T16:28:50.763Z,48.50
2022-12-31T16:31:20.126Z,60.58
2022-12-31T16:33:47.523Z,54.42
2022-12-31T16:36:16.970Z,53.33
2022-12-31T16:38:44.072Z,50.38
2022-12-31T16:41:21.639Z,41.28
2022-12-31T16:43:49.822Z,41.60
2022-12-31T16:46:23.145Z,49.92
2022-12-31T16:48:54.376Z,57.28
2022-12-31T16:51:24.245Z,45.50
2022-12-31T16:53:52.250Z,59.33
2022-12-31T16:56:24.401Z,61.35
2022-12-31T16:58:56.395Z,58.00
2022-12-31T17:01:28.557Z,55.53
2022-12-31T17:03:58.283Z,57.28
2022-12-31T17:06:27.332Z,60.50
2022-12-31T17:08:59.009Z,62.63
2022-12-31T17:11:29.078Z,56.08
2022-12-31T17:14:16.579Z,57.67
2022-12-31T17:17:01.672Z,55.38
2022-12-31T17:21:56.885Z,71.38
2022-12-31T17:24:24.031Z,70.65
2022-12-31T17:26:51.934Z,75.60
2022-12-31T17:29:26.105Z,63.47
2022-12-31T17:32:00.861Z,74.68
2022-12-31T17:34:40.349Z,98.82
2022-12-31T17:37:09.457Z,100.68
2022-12-31T17:39:44.868Z,93.35
2022-12-31T17:42:12.592Z,83.95
2022-12-31T17:44:41.347Z,88.93
2022-12-31T17:47:12.870Z,98.85
2022-12-31T17:49:41.048Z,109.28
2022-12-31T17:52:14.772Z,96.43
2022-12-31T17:54:42.500Z,91.53
2022-12-31T17:57:22.020Z,89.43
2022-12-31T17:59:49.216Z,99.00
2022-12-31T18:02:16.534Z,75.88
2022-12-31T18:04:43.718Z,99.82
2022-12-31T18:07:10.907Z,80.22
2022-12-31T18:09:37.968Z,55.95
2022-12-31T18:12:06.355Z,54.17
2022-12-31T18:14:33.782Z,61.90
2022-12-31T18:17:01.205Z,54.60
2022-12-31T18:22:16.358Z,56.53
2022-12-31T18:24:44.335Z,51.28
2022-12-31T18:27:20.518Z,50.05
2022-12-31T18:29:47.575Z,50.17
2022-12-31T18:32:14.965Z,43.00
2022-12-31T18:34:42.188Z,47.15
2022-12-31T18:37:21.465Z,42.47
2022-12-31T18:39:49.475Z,43.35
2022-12-31T18:42:18.020Z,42.22
2022-12-31T18:44:45.531Z,44.78
2022-12-31T18:47:16.593Z,43.58
2022-12-31T18:49:45.126Z,48.55
2022-12-31T18:52:16.094Z,45.75
2022-12-31T18:54:43.788Z,43.58
2022-12-31T18:57:11.963Z,43.30
2022-12-31T18:59:39.400Z,42.03
2022-12-31T19:02:12.450Z,39.00
2022-12-31T19:04:39.600Z,40.45
2022-12-31T19:07:06.604Z,35.55
2022-12-31T19:09:53.029Z,34.03
2022-12-31T19:12:21.613Z,33.55
2022-12-31T19:14:48.773Z,37.00
2022-12-31T19:17:15.928Z,40.00
2022-12-31T19:19:43.180Z,36.33
2022-12-31T19:22:13.925Z,36.85
2022-12-31T19:24:41.096Z,34.88
2022-12-31T19:27:09.989Z,36.92
2022-12-31T19:29:38.714Z,42.67
2022-12-31T19:32:06.185Z,37.70
2022-12-31T19:34:33.352Z,38.40
2022-12-31T19:37:00.415Z,35.25
2022-12-31T19:39:27.537Z,32.80
2022-12-31T19:41:58.832Z,34.85
2022-12-31T19:44:26.519Z,35.13
2022-12-31T19:46:53.668Z,34.05
2022-12-31T19:49:20.912Z,40.38
2022-12-31T19:51:48.137Z,37.08
2022-12-31T19:54:15.286Z,35.38
2022-12-31T19:56:42.439Z,31.85
2022-12-31T19:59:10.754Z,35.42
2022-12-31T20:01:38.063Z,35.25
2022-12-31T20:04:05.409Z,36.17
2022-12-31T20:06:32.508Z,38.45
2022-12-31T20:08:59.551Z,51.65
2022-12-31T20:11:26.821Z,47.92
2022-12-31T20:13:54.304Z,49.80
2022-12-31T20:16:23.008Z,44.35
2022-12-31T20:18:50.912Z,47.83
2022-12-31T20:21:19.568Z,54.17
2022-12-31T20:23:47.571Z,52.25
2022-12-31T20:26:14.971Z,52.03
2022-12-31T20:28:42.142Z,52.75
2022-12-31T20:31:11.165Z,50.05
2022-12-31T20:33:38.487Z,52.33
2022-12-31T20:36:06.424Z,51.75
2022-12-31T20:38:33.864Z,51.85
2022-12-31T20:41:04.929Z,55.75
2022-12-31T20:43:33.080Z,51.00
2022-12-31T20:46:00.554Z,48.20
2022-12-31T20:48:27.811Z,43.20
2022-12-31T20:50:58.069Z,43.42
2022-12-31T20:53:25.271Z,41.67
2022-12-31T20:55:52.453Z,38.88
2022-12-31T20:58:19.583Z,34.03
2022-12-31T21:00:50.859Z,36.17
2022-12-31T21:03:53.474Z,35.28
2022-12-31T21:06:05.991Z,38.33
2022-12-31T21:08:35.185Z,32.10
2022-12-31T21:11:03.138Z,32.40
2022-12-31T21:13:31.303Z,33.90
2022-12-31T21:15:58.543Z,31.90
2022-12-31T21:18:25.643Z,34.50
2022-12-31T21:20:53.500Z,31.52
2022-12-31T21:23:20.682Z,35.67
2022-12-31T21:25:50.223Z,32.00
2022-12-31T21:28:17.416Z,33.05
2022-12-31T21:30:44.667Z,30.08
2022-12-31T21:33:11.756Z,29.60
2022-12-31T21:35:48.338Z,30.63
2022-12-31T21:38:18.908Z,35.47
2022-12-31T21:40:46.198Z,28.92
2022-12-31T21:43:13.516Z,32.28
2022-12-31T21:45:41.015Z,36.80
2022-12-31T21:48:20.200Z,39.70
2022-12-31T21:50:48.831Z,35.90
2022-12-31T21:53:23.455Z,41.47
2022-12-31T21:56:11.787Z,38.22
2022-12-31T21:58:40.952Z,41.10
2022-12-31T22:01:28.702Z,38.15
2022-12-31T22:03:55.931Z,38.88
2022-12-31T22:06:23.625Z,33.15
2022-12-31T22:08:54.612Z,27.42
2022-12-31T22:11:23.025Z,26.98
2022-12-31T22:13:52.632Z,33.60
2022-12-31T22:16:20.514Z,36.70
2022-12-31T22:18:47.999Z,33.45
2022-12-31T22:21:20.540Z,33.42
2022-12-31T22:23:58.904Z,32.58
2022-12-31T22:26:27.984Z,27.17
2022-12-31T22:28:59.534Z,24.48
2022-12-31T22:31:30.190Z,28.50
2022-12-31T22:33:58.077Z,23.55
2022-12-31T22:36:25.229Z,26.77
2022-12-31T22:38:55.676Z,25.73
2022-12-31T22:41:23.351Z,31.33
2022-12-31T22:43:53.421Z,29.15
2022-12-31T22:46:23.482Z,30.70
2022-12-31T22:48:51.448Z,32.60
2022-12-31T22:51:19.463Z,27.38
2022-12-31T22:53:46.988Z,36.30
2022-12-31T22:56:15.570Z,33.95
2022-12-31T22:58:42.788Z,43.50
2022-12-31T23:01:20.661Z,44.92
2022-12-31T23:03:49.201Z,42.47
2022-12-31T23:06:17.015Z,62.25
2022-12-31T23:09:04.363Z,106.68
2022-12-31T23:11:35.068Z,182.73
2022-12-31T23:14:22.386Z,225.88
2022-12-31T23:17:31.041Z,228.23
2022-12-31T23:20:14.399Z,231.45
2022-12-31T23:22:59.856Z,266.90
2022-12-31T23:25:27.002Z,262.45
2022-12-31T23:27:54.166Z,231.73
2022-12-31T23:30:21.405Z,235.27
2022-12-31T23:32:48.610Z,238.18
2022-12-31T23:35:15.956Z,168.57
2022-12-31T23:37:43.098Z,162.95
2022-12-31T23:40:13.288Z,130.57
2022-12-31T23:42:42.831Z,136.02
2022-12-31T23:45:10.144Z,120.32
2022-12-31T23:47:37.736Z,154.65
2022-12-31T23:50:05.239Z,140.52
2022-12-31T23:52:32.397Z,158.10
2022-12-31T23:54:59.561Z,152.82
2022-12-31T23:57:26.717Z,154.77
2022-12-31T23:59:53.866Z,152.48
